sensor_id;sensor_type;location;lat;lon;timestamp;temperature;humidity
52743;DHT22;55583;53.012;6.556;2022-09-28T00:01:50;7.10;99.90
52743;DHT22;55583;53.012;6.556;2022-09-28T00:04:15;7.10;99.90
52743;DHT22;55583;53.012;6.556;2022-09-28T00:06:41;7.00;99.90
52743;DHT22;55583;53.012;6.556;2022-09-28T00:09:06;7.00;99.90
52743;DHT22;55583;53.012;6.556;2022-09-28T00:11:32;7.00;99.90
52743;DHT22;55583;53.012;6.556;2022-09-28T00:13:59;7.00;99.90
52743;DHT22;55583;53.012;6.556;2022-09-28T00:16:30;7.00;99.90
52743;DHT22;55583;53.012;6.556;2022-09-28T00:18:56;6.90;99.90
52743;DHT22;55583;53.012;6.556;2022-09-28T00:21:31;6.90;99.90
52743;DHT22;55583;53.012;6.556;2022-09-28T00:23:59;6.90;99.90
52743;DHT22;55583;53.012;6.556;2022-09-28T00:26:45;6.90;99.90
52743;DHT22;55583;53.012;6.556;2022-09-28T00:29:20;6.90;99.90
52743;DHT22;55583;53.012;6.556;2022-09-28T00:31:46;6.80;99.90
52743;DHT22;55583;53.012;6.556;2022-09-28T00:34:13;6.80;99.90
52743;DHT22;55583;53.012;6.556;2022-09-28T00:36:45;6.80;99.90
52743;DHT22;55583;53.012;6.556;2022-09-28T00:39:12;6.90;99.90
52743;DHT22;55583;53.012;6.556;2022-09-28T00:41:39;6.80;99.90
52743;DHT22;55583;53.012;6.556;2022-09-28T00:47:03;6.80;99.90
52743;DHT22;55583;53.012;6.556;2022-09-28T00:49:56;6.80;99.90
52743;DHT22;55583;53.012;6.556;2022-09-28T00:52:39;6.80;99.90
52743;DHT22;55583;53.012;6.556;2022-09-28T00:55:11;6.80;99.90
52743;DHT22;55583;53.012;6.556;2022-09-28T00:57:39;6.80;99.90
52743;DHT22;55583;53.012;6.556;2022-09-28T01:00:07;6.80;99.90
52743;DHT22;55583;53.012;6.556;2022-09-28T01:02:33;6.70;99.90
52743;DHT22;55583;53.012;6.556;2022-09-28T01:04:59;6.70;99.90
52743;DHT22;55583;53.012;6.556;2022-09-28T01:07:25;6.80;99.90
52743;DHT22;55583;53.012;6.556;2022-09-28T01:09:52;6.70;99.90
52743;DHT22;55583;53.012;6.556;2022-09-28T01:12:18;6.70;99.90
52743;DHT22;55583;53.012;6.556;2022-09-28T01:14:44;6.70;99.90
52743;DHT22;55583;53.012;6.556;2022-09-28T01:17:21;6.70;99.90
52743;DHT22;55583;53.012;6.556;2022-09-28T01:27:40;6.70;99.90
52743;DHT22;55583;53.012;6.556;2022-09-28T01:30:13;6.70;99.90
52743;DHT22;55583;53.012;6.556;2022-09-28T01:37:51;6.70;99.90
52743;DHT22;55583;53.012;6.556;2022-09-28T01:40:22;6.70;99.90
52743;DHT22;55583;53.012;6.556;2022-09-28T01:42:53;6.80;99.90
52743;DHT22;55583;53.012;6.556;2022-09-28T01:45:26;7.10;99.90
52743;DHT22;55583;53.012;6.556;2022-09-28T01:47:54;6.80;99.90
52743;DHT22;55583;53.012;6.556;2022-09-28T01:50:23;7.20;99.90
52743;DHT22;55583;53.012;6.556;2022-09-28T01:53:00;6.90;99.90
52743;DHT22;55583;53.012;6.556;2022-09-28T01:55:33;6.90;99.90
52743;DHT22;55583;53.012;6.556;2022-09-28T01:58:17;7.00;99.90
52743;DHT22;55583;53.012;6.556;2022-09-28T02:00:51;7.00;99.90
52743;DHT22;55583;53.012;6.556;2022-09-28T02:03:21;7.60;99.90
52743;DHT22;55583;53.012;6.556;2022-09-28T02:05:55;7.10;99.90
52743;DHT22;55583;53.012;6.556;2022-09-28T02:08:35;7.20;99.90
52743;DHT22;55583;53.012;6.556;2022-09-28T02:11:05;7.30;99.90
52743;DHT22;55583;53.012;6.556;2022-09-28T02:13:36;7.30;99.90
52743;DHT22;55583;53.012;6.556;2022-09-28T02:16:09;7.40;99.90
52743;DHT22;55583;53.012;6.556;2022-09-28T02:18:40;7.40;99.90
52743;DHT22;55583;53.012;6.556;2022-09-28T02:21:25;7.40;99.90
52743;DHT22;55583;53.012;6.556;2022-09-28T02:23:59;7.40;99.90
52743;DHT22;55583;53.012;6.556;2022-09-28T02:26:30;7.40;99.90
52743;DHT22;55583;53.012;6.556;2022-09-28T02:28:58;7.40;99.90
52743;DHT22;55583;53.012;6.556;2022-09-28T02:31:25;7.40;99.90
52743;DHT22;55583;53.012;6.556;2022-09-28T02:33:52;7.40;99.90
52743;DHT22;55583;53.012;6.556;2022-09-28T02:36:19;7.40;99.90
52743;DHT22;55583;53.012;6.556;2022-09-28T02:38:45;7.40;99.90
52743;DHT22;55583;53.012;6.556;2022-09-28T02:44:55;7.40;99.90
52743;DHT22;55583;53.012;6.556;2022-09-28T03:04:20;7.40;99.90
52743;DHT22;55583;53.012;6.556;2022-09-28T03:07:09;7.40;99.90
52743;DHT22;55583;53.012;6.556;2022-09-28T03:10:04;7.40;99.90
52743;DHT22;55583;53.012;6.556;2022-09-28T03:12:32;7.40;99.90
52743;DHT22;55583;53.012;6.556;2022-09-28T03:15:23;7.40;99.90
52743;DHT22;55583;53.012;6.556;2022-09-28T03:17:49;7.40;99.90
52743;DHT22;55583;53.012;6.556;2022-09-28T03:20:15;7.40;99.90
52743;DHT22;55583;53.012;6.556;2022-09-28T03:22:41;7.40;99.90
52743;DHT22;55583;53.012;6.556;2022-09-28T03:25:07;7.30;99.90
52743;DHT22;55583;53.012;6.556;2022-09-28T03:27:33;7.30;99.90
52743;DHT22;55583;53.012;6.556;2022-09-28T03:29:59;7.30;99.90
52743;DHT22;55583;53.012;6.556;2022-09-28T03:32:24;7.30;99.90
52743;DHT22;55583;53.012;6.556;2022-09-28T03:34:50;7.30;99.90
52743;DHT22;55583;53.012;6.556;2022-09-28T03:37:16;7.30;99.90
52743;DHT22;55583;53.012;6.556;2022-09-28T03:39:42;7.30;99.90
52743;DHT22;55583;53.012;6.556;2022-09-28T03:42:07;7.30;99.90
52743;DHT22;55583;53.012;6.556;2022-09-28T03:44:33;7.30;99.90
52743;DHT22;55583;53.012;6.556;2022-09-28T03:46:59;7.20;99.90
52743;DHT22;55583;53.012;6.556;2022-09-28T03:49:24;7.20;99.90
52743;DHT22;55583;53.012;6.556;2022-09-28T03:51:50;7.20;99.90
52743;DHT22;55583;53.012;6.556;2022-09-28T03:54:15;7.10;99.90
52743;DHT22;55583;53.012;6.556;2022-09-28T03:56:41;7.20;99.90
52743;DHT22;55583;53.012;6.556;2022-09-28T03:59:06;7.10;99.90
52743;DHT22;55583;53.012;6.556;2022-09-28T04:01:32;7.10;99.90
52743;DHT22;55583;53.012;6.556;2022-09-28T04:03:58;7.10;99.90
52743;DHT22;55583;53.012;6.556;2022-09-28T04:06:24;7.10;99.90
52743;DHT22;55583;53.012;6.556;2022-09-28T04:08:50;7.10;99.90
52743;DHT22;55583;53.012;6.556;2022-09-28T04:11:16;7.20;99.90
52743;DHT22;55583;53.012;6.556;2022-09-28T04:13:42;7.00;99.90
52743;DHT22;55583;53.012;6.556;2022-09-28T04:16:09;7.40;99.90
52743;DHT22;55583;53.012;6.556;2022-09-28T04:18:35;7.10;99.90
52743;DHT22;55583;53.012;6.556;2022-09-28T04:21:12;7.00;99.90
52743;DHT22;55583;53.012;6.556;2022-09-28T04:23:38;7.00;99.90
52743;DHT22;55583;53.012;6.556;2022-09-28T04:26:06;7.50;99.90
52743;DHT22;55583;53.012;6.556;2022-09-28T04:28:32;7.00;99.90
52743;DHT22;55583;53.012;6.556;2022-09-28T04:31:18;6.90;99.90
52743;DHT22;55583;53.012;6.556;2022-09-28T04:33:44;6.90;99.90
52743;DHT22;55583;53.012;6.556;2022-09-28T04:36:10;6.90;99.90
52743;DHT22;55583;53.012;6.556;2022-09-28T04:38:37;6.80;99.90
52743;DHT22;55583;53.012;6.556;2022-09-28T04:41:04;6.80;99.90
52743;DHT22;55583;53.012;6.556;2022-09-28T04:43:30;6.80;99.90
52743;DHT22;55583;53.012;6.556;2022-09-28T04:46:00;6.70;99.90
52743;DHT22;55583;53.012;6.556;2022-09-28T04:48:27;6.70;99.90
52743;DHT22;55583;53.012;6.556;2022-09-28T04:50:54;6.80;99.90
52743;DHT22;55583;53.012;6.556;2022-09-28T04:53:20;6.70;99.90
52743;DHT22;55583;53.012;6.556;2022-09-28T04:56:00;6.70;99.90
52743;DHT22;55583;53.012;6.556;2022-09-28T04:58:27;6.70;99.90
52743;DHT22;55583;53.012;6.556;2022-09-28T05:00:56;6.70;99.90
52743;DHT22;55583;53.012;6.556;2022-09-28T05:03:22;6.60;99.90
52743;DHT22;55583;53.012;6.556;2022-09-28T05:05:48;6.60;99.90
52743;DHT22;55583;53.012;6.556;2022-09-28T05:08:15;6.60;99.90
52743;DHT22;55583;53.012;6.556;2022-09-28T05:10:41;6.60;99.90
52743;DHT22;55583;53.012;6.556;2022-09-28T05:13:07;6.60;99.90
52743;DHT22;55583;53.012;6.556;2022-09-28T05:15:34;6.60;99.90
52743;DHT22;55583;53.012;6.556;2022-09-28T05:18:00;6.60;99.90
52743;DHT22;55583;53.012;6.556;2022-09-28T05:20:25;6.60;99.90
52743;DHT22;55583;53.012;6.556;2022-09-28T05:22:51;6.60;99.90
52743;DHT22;55583;53.012;6.556;2022-09-28T05:25:17;6.60;99.90
52743;DHT22;55583;53.012;6.556;2022-09-28T05:27:43;6.60;99.90
52743;DHT22;55583;53.012;6.556;2022-09-28T05:30:09;6.60;99.90
52743;DHT22;55583;53.012;6.556;2022-09-28T05:32:42;6.70;99.90
52743;DHT22;55583;53.012;6.556;2022-09-28T05:35:11;6.70;99.90
52743;DHT22;55583;53.012;6.556;2022-09-28T05:37:37;6.70;99.90
52743;DHT22;55583;53.012;6.556;2022-09-28T05:40:04;6.90;99.90
52743;DHT22;55583;53.012;6.556;2022-09-28T05:42:30;6.70;99.90
52743;DHT22;55583;53.012;6.556;2022-09-28T05:44:56;6.70;99.90
52743;DHT22;55583;53.012;6.556;2022-09-28T05:47:27;6.70;99.90
52743;DHT22;55583;53.012;6.556;2022-09-28T05:49:53;6.80;99.90
52743;DHT22;55583;53.012;6.556;2022-09-28T05:52:18;6.80;99.90
52743;DHT22;55583;53.012;6.556;2022-09-28T05:54:44;6.80;99.90
52743;DHT22;55583;53.012;6.556;2022-09-28T05:57:11;6.80;99.90
52743;DHT22;55583;53.012;6.556;2022-09-28T05:59:37;6.80;99.90
52743;DHT22;55583;53.012;6.556;2022-09-28T06:02:03;7.20;99.90
52743;DHT22;55583;53.012;6.556;2022-09-28T06:04:29;7.10;99.90
52743;DHT22;55583;53.012;6.556;2022-09-28T06:06:55;6.90;99.90
52743;DHT22;55583;53.012;6.556;2022-09-28T06:09:21;6.90;99.90
52743;DHT22;55583;53.012;6.556;2022-09-28T06:11:49;6.90;99.90
52743;DHT22;55583;53.012;6.556;2022-09-28T06:14:14;7.00;99.90
52743;DHT22;55583;53.012;6.556;2022-09-28T06:16:40;6.90;99.90
52743;DHT22;55583;53.012;6.556;2022-09-28T06:19:07;6.90;99.90
52743;DHT22;55583;53.012;6.556;2022-09-28T06:21:33;6.90;99.90
52743;DHT22;55583;53.012;6.556;2022-09-28T06:23:59;6.90;99.90
52743;DHT22;55583;53.012;6.556;2022-09-28T06:26:25;6.90;99.90
52743;DHT22;55583;53.012;6.556;2022-09-28T06:28:50;6.80;99.90
52743;DHT22;55583;53.012;6.556;2022-09-28T06:31:16;6.80;99.90
52743;DHT22;55583;53.012;6.556;2022-09-28T06:33:42;6.80;99.90
52743;DHT22;55583;53.012;6.556;2022-09-28T06:36:08;6.80;99.90
52743;DHT22;55583;53.012;6.556;2022-09-28T06:38:34;6.80;99.90
52743;DHT22;55583;53.012;6.556;2022-09-28T06:41:00;6.80;99.90
52743;DHT22;55583;53.012;6.556;2022-09-28T06:43:26;6.80;99.90
52743;DHT22;55583;53.012;6.556;2022-09-28T06:45:53;6.80;99.90
52743;DHT22;55583;53.012;6.556;2022-09-28T06:48:19;6.80;99.90
52743;DHT22;55583;53.012;6.556;2022-09-28T06:50:45;6.90;99.90
52743;DHT22;55583;53.012;6.556;2022-09-28T06:53:12;6.90;99.90
52743;DHT22;55583;53.012;6.556;2022-09-28T06:55:40;7.60;99.90
52743;DHT22;55583;53.012;6.556;2022-09-28T06:58:09;7.10;99.90
52743;DHT22;55583;53.012;6.556;2022-09-28T07:00:36;7.20;99.90
52743;DHT22;55583;53.012;6.556;2022-09-28T07:03:05;7.30;99.90
52743;DHT22;55583;53.012;6.556;2022-09-28T07:05:33;7.50;99.90
52743;DHT22;55583;53.012;6.556;2022-09-28T07:07:59;7.50;99.90
52743;DHT22;55583;53.012;6.556;2022-09-28T07:10:27;7.60;99.90
52743;DHT22;55583;53.012;6.556;2022-09-28T07:12:54;7.70;99.90
52743;DHT22;55583;53.012;6.556;2022-09-28T07:15:21;7.90;99.90
52743;DHT22;55583;53.012;6.556;2022-09-28T07:17:47;7.70;99.90
52743;DHT22;55583;53.012;6.556;2022-09-28T07:20:13;7.80;99.90
52743;DHT22;55583;53.012;6.556;2022-09-28T07:22:39;7.90;99.90
52743;DHT22;55583;53.012;6.556;2022-09-28T07:25:08;8.00;99.90
52743;DHT22;55583;53.012;6.556;2022-09-28T07:27:34;8.10;99.90
52743;DHT22;55583;53.012;6.556;2022-09-28T07:30:04;8.20;99.90
52743;DHT22;55583;53.012;6.556;2022-09-28T07:32:30;8.20;99.90
52743;DHT22;55583;53.012;6.556;2022-09-28T07:34:58;8.30;99.90
52743;DHT22;55583;53.012;6.556;2022-09-28T07:37:24;8.40;99.90
52743;DHT22;55583;53.012;6.556;2022-09-28T07:39:51;8.70;99.90
52743;DHT22;55583;53.012;6.556;2022-09-28T07:42:35;8.70;99.90
52743;DHT22;55583;53.012;6.556;2022-09-28T07:45:02;8.80;99.90
52743;DHT22;55583;53.012;6.556;2022-09-28T07:47:28;8.90;99.90
52743;DHT22;55583;53.012;6.556;2022-09-28T07:49:55;9.10;99.90
52743;DHT22;55583;53.012;6.556;2022-09-28T07:52:23;9.20;99.90
52743;DHT22;55583;53.012;6.556;2022-09-28T07:54:53;9.40;99.90
52743;DHT22;55583;53.012;6.556;2022-09-28T07:57:21;9.90;99.90
52743;DHT22;55583;53.012;6.556;2022-09-28T07:59:47;9.70;99.90
52743;DHT22;55583;53.012;6.556;2022-09-28T08:02:18;9.70;99.90
52743;DHT22;55583;53.012;6.556;2022-09-28T08:04:48;9.70;99.90
52743;DHT22;55583;53.012;6.556;2022-09-28T08:07:14;9.80;99.90
52743;DHT22;55583;53.012;6.556;2022-09-28T08:09:44;9.80;99.90
52743;DHT22;55583;53.012;6.556;2022-09-28T08:12:10;9.80;99.90
52743;DHT22;55583;53.012;6.556;2022-09-28T08:14:37;9.60;99.90
52743;DHT22;55583;53.012;6.556;2022-09-28T08:17:04;9.70;99.90
52743;DHT22;55583;53.012;6.556;2022-09-28T08:19:30;9.90;99.90
52743;DHT22;55583;53.012;6.556;2022-09-28T08:22:19;10.10;99.90
52743;DHT22;55583;53.012;6.556;2022-09-28T08:24:46;10.40;99.90
52743;DHT22;55583;53.012;6.556;2022-09-28T08:27:12;10.50;99.90
52743;DHT22;55583;53.012;6.556;2022-09-28T08:29:38;10.40;99.90
52743;DHT22;55583;53.012;6.556;2022-09-28T08:32:06;10.50;99.90
52743;DHT22;55583;53.012;6.556;2022-09-28T08:34:37;10.80;99.90
52743;DHT22;55583;53.012;6.556;2022-09-28T08:37:03;11.00;99.90
52743;DHT22;55583;53.012;6.556;2022-09-28T08:39:29;11.20;99.90
52743;DHT22;55583;53.012;6.556;2022-09-28T08:44:29;11.10;99.90
52743;DHT22;55583;53.012;6.556;2022-09-28T08:47:09;11.10;99.90
52743;DHT22;55583;53.012;6.556;2022-09-28T08:49:58;11.30;99.90
52743;DHT22;55583;53.012;6.556;2022-09-28T08:52:30;11.60;99.90
52743;DHT22;55583;53.012;6.556;2022-09-28T08:58:07;12.00;99.90
52743;DHT22;55583;53.012;6.556;2022-09-28T09:00:40;11.90;99.90
52743;DHT22;55583;53.012;6.556;2022-09-28T09:03:12;11.80;99.90
52743;DHT22;55583;53.012;6.556;2022-09-28T09:11:05;11.50;99.90
52743;DHT22;55583;53.012;6.556;2022-09-28T09:16:38;11.60;99.90
52743;DHT22;55583;53.012;6.556;2022-09-28T09:19:58;11.60;99.90
52743;DHT22;55583;53.012;6.556;2022-09-28T09:22:00;11.80;99.90
52743;DHT22;55583;53.012;6.556;2022-09-28T09:24:53;11.80;99.90
52743;DHT22;55583;53.012;6.556;2022-09-28T09:29:51;12.80;99.90
52743;DHT22;55583;53.012;6.556;2022-09-28T09:32:38;13.70;99.90
52743;DHT22;55583;53.012;6.556;2022-09-28T09:40:55;16.10;99.90
52743;DHT22;55583;53.012;6.556;2022-09-28T09:47:02;20.60;99.90
52743;DHT22;55583;53.012;6.556;2022-09-28T09:49:18;21.70;99.90
52743;DHT22;55583;53.012;6.556;2022-09-28T09:51:54;23.60;99.90
52743;DHT22;55583;53.012;6.556;2022-09-28T09:54:23;25.20;99.90
52743;DHT22;55583;53.012;6.556;2022-09-28T09:56:55;26.00;98.20
52743;DHT22;55583;53.012;6.556;2022-09-28T09:59:26;25.90;86.50
52743;DHT22;55583;53.012;6.556;2022-09-28T10:02:00;24.70;95.70
52743;DHT22;55583;53.012;6.556;2022-09-28T10:04:32;23.10;98.20
52743;DHT22;55583;53.012;6.556;2022-09-28T10:07:03;21.60;99.90
52743;DHT22;55583;53.012;6.556;2022-09-28T10:09:35;20.40;99.90
52743;DHT22;55583;53.012;6.556;2022-09-28T10:12:02;19.20;99.90
52743;DHT22;55583;53.012;6.556;2022-09-28T10:14:29;18.20;99.70
52743;DHT22;55583;53.012;6.556;2022-09-28T10:16:56;17.50;99.90
52743;DHT22;55583;53.012;6.556;2022-09-28T10:19:33;17.10;99.90
52743;DHT22;55583;53.012;6.556;2022-09-28T10:22:03;16.70;99.90
52743;DHT22;55583;53.012;6.556;2022-09-28T10:24:39;16.30;99.90
52743;DHT22;55583;53.012;6.556;2022-09-28T10:27:31;16.10;99.90
52743;DHT22;55583;53.012;6.556;2022-09-28T10:30:08;16.00;99.90
52743;DHT22;55583;53.012;6.556;2022-09-28T10:32:45;16.00;99.90
52743;DHT22;55583;53.012;6.556;2022-09-28T10:38:14;17.50;99.90
52743;DHT22;55583;53.012;6.556;2022-09-28T10:46:12;20.20;75.30
52743;DHT22;55583;53.012;6.556;2022-09-28T10:51:10;19.20;79.30
52743;DHT22;55583;53.012;6.556;2022-09-28T10:53:36;18.70;82.90
52743;DHT22;55583;53.012;6.556;2022-09-28T10:56:06;18.10;84.10
52743;DHT22;55583;53.012;6.556;2022-09-28T10:58:42;17.70;85.30
52743;DHT22;55583;53.012;6.556;2022-09-28T11:01:17;17.20;85.70
52743;DHT22;55583;53.012;6.556;2022-09-28T11:03:58;16.90;85.10
52743;DHT22;55583;53.012;6.556;2022-09-28T11:06:36;16.80;90.50
52743;DHT22;55583;53.012;6.556;2022-09-28T11:09:18;18.20;79.40
52743;DHT22;55583;53.012;6.556;2022-09-28T11:11:46;20.20;79.50
52743;DHT22;55583;53.012;6.556;2022-09-28T11:14:26;22.30;75.40
52743;DHT22;55583;53.012;6.556;2022-09-28T11:19:41;24.20;63.20
52743;DHT22;55583;53.012;6.556;2022-09-28T11:22:22;23.60;68.10
52743;DHT22;55583;53.012;6.556;2022-09-28T11:24:49;23.40;63.20
52743;DHT22;55583;53.012;6.556;2022-09-28T11:27:22;23.90;67.40
52743;DHT22;55583;53.012;6.556;2022-09-28T11:29:57;24.70;59.90
52743;DHT22;55583;53.012;6.556;2022-09-28T11:32:25;23.90;60.90
52743;DHT22;55583;53.012;6.556;2022-09-28T11:34:55;22.90;64.90
52743;DHT22;55583;53.012;6.556;2022-09-28T11:37:44;22.40;65.70
52743;DHT22;55583;53.012;6.556;2022-09-28T11:48:48;22.90;61.90
52743;DHT22;55583;53.012;6.556;2022-09-28T11:51:22;22.90;63.30
52743;DHT22;55583;53.012;6.556;2022-09-28T11:53:53;23.50;65.00
52743;DHT22;55583;53.012;6.556;2022-09-28T11:56:38;24.20;60.60
52743;DHT22;55583;53.012;6.556;2022-09-28T12:04:32;25.80;60.40
52743;DHT22;55583;53.012;6.556;2022-09-28T12:07:16;26.40;56.20
52743;DHT22;55583;53.012;6.556;2022-09-28T12:12:39;25.80;58.10
52743;DHT22;55583;53.012;6.556;2022-09-28T12:15:16;25.20;57.80
52743;DHT22;55583;53.012;6.556;2022-09-28T12:17:47;24.40;58.90
52743;DHT22;55583;53.012;6.556;2022-09-28T12:20:33;23.60;60.10
52743;DHT22;55583;53.012;6.556;2022-09-28T12:23:21;22.70;59.70
52743;DHT22;55583;53.012;6.556;2022-09-28T12:25:57;21.90;59.80
52743;DHT22;55583;53.012;6.556;2022-09-28T12:33:41;20.10;64.20
52743;DHT22;55583;53.012;6.556;2022-09-28T12:36:50;19.70;65.20
52743;DHT22;55583;53.012;6.556;2022-09-28T12:42:07;19.00;68.40
52743;DHT22;55583;53.012;6.556;2022-09-28T12:45:14;18.80;68.90
52743;DHT22;55583;53.012;6.556;2022-09-28T12:53:31;18.20;69.90
52743;DHT22;55583;53.012;6.556;2022-09-28T12:56:40;18.00;70.70
52743;DHT22;55583;53.012;6.556;2022-09-28T12:59:14;17.80;71.70
52743;DHT22;55583;53.012;6.556;2022-09-28T13:04:55;17.50;73.70
52743;DHT22;55583;53.012;6.556;2022-09-28T13:12:47;17.00;76.50
52743;DHT22;55583;53.012;6.556;2022-09-28T13:21:21;16.30;78.30
52743;DHT22;55583;53.012;6.556;2022-09-28T13:23:54;16.00;80.10
52743;DHT22;55583;53.012;6.556;2022-09-28T13:26:29;15.70;81.90
52743;DHT22;55583;53.012;6.556;2022-09-28T13:29:00;15.50;83.70
52743;DHT22;55583;53.012;6.556;2022-09-28T13:31:30;15.60;85.00
52743;DHT22;55583;53.012;6.556;2022-09-28T13:34:00;15.30;86.60
52743;DHT22;55583;53.012;6.556;2022-09-28T13:38:54;15.10;90.80
52743;DHT22;55583;53.012;6.556;2022-09-28T14:00:55;15.70;93.30
52743;DHT22;55583;53.012;6.556;2022-09-28T14:06:32;15.90;92.40
52743;DHT22;55583;53.012;6.556;2022-09-28T14:16:41;17.60;89.30
52743;DHT22;55583;53.012;6.556;2022-09-28T14:30:18;19.40;74.70
52743;DHT22;55583;53.012;6.556;2022-09-28T14:32:56;19.40;74.70
52743;DHT22;55583;53.012;6.556;2022-09-28T14:35:38;19.30;75.40
52743;DHT22;55583;53.012;6.556;2022-09-28T14:38:25;19.20;76.50
52743;DHT22;55583;53.012;6.556;2022-09-28T14:41:31;19.20;76.40
52743;DHT22;55583;53.012;6.556;2022-09-28T14:44:12;19.10;77.30
52743;DHT22;55583;53.012;6.556;2022-09-28T14:46:47;18.90;78.60
52743;DHT22;55583;53.012;6.556;2022-09-28T14:52:08;18.30;77.90
52743;DHT22;55583;53.012;6.556;2022-09-28T14:54:52;18.00;78.10
52743;DHT22;55583;53.012;6.556;2022-09-28T14:57:24;17.60;79.50
52743;DHT22;55583;53.012;6.556;2022-09-28T14:59:54;17.20;80.50
52743;DHT22;55583;53.012;6.556;2022-09-28T15:02:31;16.90;80.50
52743;DHT22;55583;53.012;6.556;2022-09-28T15:05:21;16.50;81.30
52743;DHT22;55583;53.012;6.556;2022-09-28T15:07:50;16.00;82.40
52743;DHT22;55583;53.012;6.556;2022-09-28T15:10:31;15.70;83.60
52743;DHT22;55583;53.012;6.556;2022-09-28T15:13:04;15.50;86.60
52743;DHT22;55583;53.012;6.556;2022-09-28T15:15:40;15.30;85.70
52743;DHT22;55583;53.012;6.556;2022-09-28T15:18:32;15.10;86.30
52743;DHT22;55583;53.012;6.556;2022-09-28T15:21:03;14.90;88.30
52743;DHT22;55583;53.012;6.556;2022-09-28T15:23:37;14.70;89.80
52743;DHT22;55583;53.012;6.556;2022-09-28T15:26:19;14.90;90.80
52743;DHT22;55583;53.012;6.556;2022-09-28T15:28:45;14.70;91.30
52743;DHT22;55583;53.012;6.556;2022-09-28T15:31:17;15.00;91.80
52743;DHT22;55583;53.012;6.556;2022-09-28T15:33:43;14.50;92.90
52743;DHT22;55583;53.012;6.556;2022-09-28T15:36:29;14.50;93.80
52743;DHT22;55583;53.012;6.556;2022-09-28T15:41:30;14.40;95.10
52743;DHT22;55583;53.012;6.556;2022-09-28T15:44:28;14.40;95.10
52743;DHT22;55583;53.012;6.556;2022-09-28T15:47:09;14.30;96.60
52743;DHT22;55583;53.012;6.556;2022-09-28T15:49:45;14.40;96.90
52743;DHT22;55583;53.012;6.556;2022-09-28T15:57:49;14.10;98.30
52743;DHT22;55583;53.012;6.556;2022-09-28T16:00:27;14.00;99.40
52743;DHT22;55583;53.012;6.556;2022-09-28T16:13:50;13.80;99.90
52743;DHT22;55583;53.012;6.556;2022-09-28T16:16:25;13.80;99.90
52743;DHT22;55583;53.012;6.556;2022-09-28T16:18:51;13.70;99.90
52743;DHT22;55583;53.012;6.556;2022-09-28T16:21:35;13.60;99.90
52743;DHT22;55583;53.012;6.556;2022-09-28T16:24:03;13.60;99.90
52743;DHT22;55583;53.012;6.556;2022-09-28T16:26:35;13.50;99.90
52743;DHT22;55583;53.012;6.556;2022-09-28T16:29:08;13.50;99.90
52743;DHT22;55583;53.012;6.556;2022-09-28T16:31:48;13.40;99.90
52743;DHT22;55583;53.012;6.556;2022-09-28T16:34:18;13.20;99.90
52743;DHT22;55583;53.012;6.556;2022-09-28T16:36:47;13.10;99.90
52743;DHT22;55583;53.012;6.556;2022-09-28T16:39:17;13.10;99.90
52743;DHT22;55583;53.012;6.556;2022-09-28T16:41:47;13.30;99.90
52743;DHT22;55583;53.012;6.556;2022-09-28T16:44:24;13.00;99.90
52743;DHT22;55583;53.012;6.556;2022-09-28T16:46:52;13.10;99.90
52743;DHT22;55583;53.012;6.556;2022-09-28T16:49:20;12.90;99.90
52743;DHT22;55583;53.012;6.556;2022-09-28T16:51:48;12.90;99.90
52743;DHT22;55583;53.012;6.556;2022-09-28T16:54:18;12.70;99.90
52743;DHT22;55583;53.012;6.556;2022-09-28T16:57:16;12.60;99.90
52743;DHT22;55583;53.012;6.556;2022-09-28T16:59:42;12.40;99.90
52743;DHT22;55583;53.012;6.556;2022-09-28T17:02:18;12.40;99.90
52743;DHT22;55583;53.012;6.556;2022-09-28T17:04:45;12.30;99.90
52743;DHT22;55583;53.012;6.556;2022-09-28T17:07:12;12.30;99.90
52743;DHT22;55583;53.012;6.556;2022-09-28T17:09:38;12.10;99.90
52743;DHT22;55583;53.012;6.556;2022-09-28T17:12:16;12.00;99.90
52743;DHT22;55583;53.012;6.556;2022-09-28T17:14:43;12.20;99.90
52743;DHT22;55583;53.012;6.556;2022-09-28T17:17:10;11.80;99.90
52743;DHT22;55583;53.012;6.556;2022-09-28T17:19:35;11.70;99.90
52743;DHT22;55583;53.012;6.556;2022-09-28T17:22:01;11.60;99.90
52743;DHT22;55583;53.012;6.556;2022-09-28T17:24:27;11.90;99.90
52743;DHT22;55583;53.012;6.556;2022-09-28T17:26:53;11.50;99.90
52743;DHT22;55583;53.012;6.556;2022-09-28T17:29:19;11.40;99.90
52743;DHT22;55583;53.012;6.556;2022-09-28T17:31:45;11.30;99.90
52743;DHT22;55583;53.012;6.556;2022-09-28T17:34:13;11.20;99.90
52743;DHT22;55583;53.012;6.556;2022-09-28T17:36:41;11.10;99.90
52743;DHT22;55583;53.012;6.556;2022-09-28T17:39:12;11.00;99.90
52743;DHT22;55583;53.012;6.556;2022-09-28T17:41:38;10.90;99.90
52743;DHT22;55583;53.012;6.556;2022-09-28T17:44:05;10.80;99.90
52743;DHT22;55583;53.012;6.556;2022-09-28T17:46:36;10.80;99.90
52743;DHT22;55583;53.012;6.556;2022-09-28T17:49:04;11.10;99.90
52743;DHT22;55583;53.012;6.556;2022-09-28T17:51:34;11.10;99.90
52743;DHT22;55583;53.012;6.556;2022-09-28T17:54:02;10.60;99.90
52743;DHT22;55583;53.012;6.556;2022-09-28T17:56:29;10.60;99.90
52743;DHT22;55583;53.012;6.556;2022-09-28T17:58:56;11.10;99.90
52743;DHT22;55583;53.012;6.556;2022-09-28T18:01:22;10.60;99.90
52743;DHT22;55583;53.012;6.556;2022-09-28T18:03:48;10.70;99.90
52743;DHT22;55583;53.012;6.556;2022-09-28T18:06:16;10.40;99.90
52743;DHT22;55583;53.012;6.556;2022-09-28T18:09:13;10.50;99.90
52743;DHT22;55583;53.012;6.556;2022-09-28T18:11:42;10.40;99.90
52743;DHT22;55583;53.012;6.556;2022-09-28T18:14:09;10.30;99.90
52743;DHT22;55583;53.012;6.556;2022-09-28T18:16:35;10.50;99.90
52743;DHT22;55583;53.012;6.556;2022-09-28T18:19:01;10.20;99.90
52743;DHT22;55583;53.012;6.556;2022-09-28T18:21:26;10.20;99.90
52743;DHT22;55583;53.012;6.556;2022-09-28T18:23:52;10.10;99.90
52743;DHT22;55583;53.012;6.556;2022-09-28T18:26:17;10.00;99.90
52743;DHT22;55583;53.012;6.556;2022-09-28T18:28:44;10.00;99.90
52743;DHT22;55583;53.012;6.556;2022-09-28T18:31:11;9.90;99.90
52743;DHT22;55583;53.012;6.556;2022-09-28T18:33:37;9.90;99.90
52743;DHT22;55583;53.012;6.556;2022-09-28T18:36:04;9.80;99.90
52743;DHT22;55583;53.012;6.556;2022-09-28T18:38:30;9.80;99.90
52743;DHT22;55583;53.012;6.556;2022-09-28T18:40:56;9.70;99.90
52743;DHT22;55583;53.012;6.556;2022-09-28T18:43:22;9.70;99.90
52743;DHT22;55583;53.012;6.556;2022-09-28T18:45:48;9.70;99.90
52743;DHT22;55583;53.012;6.556;2022-09-28T18:48:13;9.70;99.90
52743;DHT22;55583;53.012;6.556;2022-09-28T18:50:43;9.80;99.90
52743;DHT22;55583;53.012;6.556;2022-09-28T18:53:09;9.80;99.90
52743;DHT22;55583;53.012;6.556;2022-09-28T18:55:38;9.70;99.90
52743;DHT22;55583;53.012;6.556;2022-09-28T18:58:08;9.70;99.90
52743;DHT22;55583;53.012;6.556;2022-09-28T19:00:37;9.70;99.90
52743;DHT22;55583;53.012;6.556;2022-09-28T19:03:04;9.60;99.90
52743;DHT22;55583;53.012;6.556;2022-09-28T19:05:29;9.60;99.90
52743;DHT22;55583;53.012;6.556;2022-09-28T19:07:55;9.50;99.90
52743;DHT22;55583;53.012;6.556;2022-09-28T19:10:21;9.50;99.90